Flight Track Log - Related Links

Times and Time Zones

All times are in EDT time to prevent confusion due to time zone crossing. See the N1811Y flight status page for this flight to view local times or setup timezone preferences in your user account.

Time Position Orientation Groundspeed Altitude Reporting Facility
EDT Latitude Longitude Course Direction KTS MPH feet Rate Location/Type
Sun 10:39:09 AM 36.1042 -85.2800 80° East 164 189 5,700  Level Atlanta Center
Sun 10:40:09 AM 36.1111 -85.2261 81° East 164 189 6,300 605 Climbing Atlanta Center
Sun 10:41:08 AM 36.1178 -85.1747 81° East 164 189 6,900 504 Climbing Atlanta Center
Sun 10:42:08 AM 36.1267 -85.1183 79° East 164 189 7,300 446 Climbing Atlanta Center
Sun 10:43:00 AM 36.1085 -85.1578 80° East  Level FlightAware Approximate
Sun 10:43:09 AM 36.1333 -85.0644 81° East 164 189 7,800  Level Atlanta Center
Sun 10:44:08 AM 36.1422 -85.0056 79° East 164 189 8,300 450 Climbing Atlanta Center
Sun 10:45:09 AM 36.1508 -84.9492 79° East 164 189 8,700 300 Climbing Atlanta Center
Sun 10:46:08 AM 36.1575 -84.8925 82° East 164 189 8,900 151 Climbing Atlanta Center
Sun 10:47:08 AM 36.1664 -84.8333 79° East 164 189 9,000 50 Climbing Atlanta Center
Sun 10:48:09 AM 36.1731 -84.7692 83° East 169 194 9,000  Level Atlanta Center
Sun 10:49:08 AM 36.1836 -84.7050 78° East 181 208 9,000  Level Atlanta Center
Sun 10:50:09 AM 36.1925 -84.6381 81° East 181 208 9,000  Level Atlanta Center
Sun 10:51:09 AM 36.1989 -84.5739 83° East 186 214 9,000  Level Atlanta Center
Sun 10:52:09 AM 36.2075 -84.5069 81° East 186 214 9,000  Level Atlanta Center
Sun 10:53:08 AM 36.2183 -84.4428 78° East 186 214 9,000  Level Atlanta Center
Sun 10:54:09 AM 36.2267 -84.3758 81° East 186 214 9,000  Level Atlanta Center
Sun 10:55:09 AM 36.2353 -84.3089 81° East 186 214 9,000  Level Atlanta Center
Sun 10:56:08 AM 36.2436 -84.2447 81° East 186 214 9,000  Level Atlanta Center
Sun 10:58:00 AM 36.2581 -84.1283 81° East  Level FlightAware Approximate
Sun 11:05:00 AM 36.3114 -83.6914 81° East  Level FlightAware Approximate
Sun 11:06:00 AM 36.3189 -83.6289 82° East  Level FlightAware Approximate
Sun 11:07:00 AM 36.3264 -83.5664 82° East  Level FlightAware Approximate
Sun 11:08:00 AM 36.3338 -83.5039 82° East  Level FlightAware Approximate
Sun 11:09:00 AM 36.3412 -83.4414 82° East  Level FlightAware Approximate
Sun 11:10:00 AM 36.3486 -83.3789 82° East  Level FlightAware Approximate
Sun 11:11:00 AM 36.3566 -83.3164 81° East  Level FlightAware Approximate
Sun 11:12:00 AM 36.3648 -83.2541 81° East  Level FlightAware Approximate
Sun 11:13:00 AM 36.3730 -83.1917 81° East  Level FlightAware Approximate
Sun 11:14:00 AM 36.3811 -83.1293 81° East  Level FlightAware Approximate
Sun 11:15:00 AM 36.3892 -83.0669 81° East  Level FlightAware Approximate
Sun 11:16:00 AM 36.3973 -83.0044 81° East  Level FlightAware Approximate
Sun 11:17:00 AM 36.4042 -82.9418 83° East  Level FlightAware Approximate
Sun 11:18:00 AM 36.4105 -82.8791 83° East  Level FlightAware Approximate
Sun 11:19:00 AM 36.4168 -82.8163 83° East  Level FlightAware Approximate
Sun 11:20:00 AM 36.4231 -82.7535 83° East  Level FlightAware Approximate
Sun 11:21:00 AM 36.4293 -82.6908 83° East  Level FlightAware Approximate
Sun 11:22:00 AM 36.4363 -82.6281 81° East  Level FlightAware Approximate
Sun 11:23:00 AM 36.4446 -82.5657 81° East  Level FlightAware Approximate
Sun 11:24:00 AM 36.4530 -82.5033 81° East  Level FlightAware Approximate
Sun 11:25:00 AM 36.4613 -82.4409 81° East  Level FlightAware Approximate
Sun 11:26:00 AM 36.4667 -82.4000 81° East  Level FlightAware Approximate
Sun 11:27:00 AM 36.4752 -82.4074 81° East  Level Estimated
Sun 11:28:00 AM 36.4752 -82.4074 81° East  Level Estimated
Sun 11:29:00 AM 36.4752 -82.4074 81° East  Level Estimated
Sun 11:30:00 AM 36.4752 -82.4074 81° East  Level Estimated
Sun 11:31:00 AM 36.4752 -82.4074 81° East  Level Estimated
Sun 11:32:00 AM 36.4752 -82.4074 81° East  Level Estimated
Sun 11:33:00 AM 36.4752 -82.4074 81° East  Level Estimated
Sun 11:34:00 AM 36.4752 -82.4074 81° East  Level Estimated
Sun 11:35:00 AM 36.4752 -82.4074 81° East  Level Estimated
Sun 11:36:00 AM 36.4752 -82.4074 81° East  Level Estimated
Sun 11:37:00 AM 36.4752 -82.4074 81° East  Level Estimated
Sun 11:38:00 AM 36.4752 -82.4074 81° East  Level Estimated
Sun 11:39:00 AM 36.4752 -82.4074 81° East  Level Estimated
Sun 11:40:00 AM 36.4752 -82.4074 81° East  Level Estimated
Sun 11:41:00 AM 36.4752 -82.4074 81° East  Level Estimated
Sun 11:42:00 AM 36.4752 -82.4074 81° East  Level Estimated
Sun 11:43:00 AM 36.4752 -82.4074 81° East  Level Estimated

Login

Don't have an account? Register now (free) for customized features, flight alerts, and more!